Lawai, Hawaii
Current Conditions -  °F | °C
As of 12:53 PM on Saturday 25 Oct 2014 (Local Time) from PHLI Reporting Station
Broken Clouds Broken Clouds  
Wind Chill: 81°   Ceiling: 1700
Heat Index: 86°   Visibility: 10mi
Dew Point: 74°   Wind: 12mph
Humidity: 79%   Direction: 30°NNE
Pressure: 30.02"   Gusts: NA
Location:  21.92°N, 159.5°W
Report Text: PHLI 252253Z 03010KT 10SM BKN017 BKN023 27/23 A3002 RMK AO2 RAE09 SLP162 P0005 T02720233
Loading
Personal Weather Stations






























Interactive Weather Map
Tropical Storm Tracking
New forecast layout! Learn more

10-Day Weather Forecast

Advertisements
Track Severe Weather on mobile